LPPD/PDL METAR and TAF weather

Enter ICAO airport designator
Station Type Date Time Source
LPPD METAR 2022/01/18 06:30 UTC NOAA

LPPD 180630Z 13017KT 5000 BR FEW005 BKN008 17/16 Q1010


Station Type Date Time Source
LPPD Decoded METAR 2022/01/18 06:30 UTC NOAA

Ponta Delgada / Nordela Acores , Portugal (LPPD) 37-44N 025-42W 72M
Jan 18, 2022 - 01:30 AM EST / 2022.01.18 0630 UTC
Wind: from the SE (130 degrees) at 20 MPH (17 KT):0
Visibility: 3 mile(s):0
Sky conditions: mostly cloudy
Weather: mist
Temperature: 62 F (17 C)
Dew Point: 60 F (16 C)
Relative Humidity: 93%
Pressure (altimeter): 29.83 in. Hg (1010 hPa)
ob: LPPD 180630Z 13017KT 5000 BR FEW005 BKN008 17/16 Q1010
cycle: 6

Station Type Date Time Source
LPPD TAF 2022/01/18 06:18 UTC NOAA

TAF LPPD 180500Z 1806/1906 14017KT 6000 SCT008 BKN015
TEMPO 1806/1824 3000 RADZ BR SCT002 BKN004 FEW018TCU PROB30
TEMPO 1806/1818 14018G30KT 2000 +TSRA SCT015CB
BECMG 1900/1902 9999 SCT012 SCT025
TEMPO 1902/1906 5000 SHRA BKN015 FEW018TCU

Example: see airport list